createdAt,value
2019-05-09T00:00:15.501Z,13.6
2019-05-09T00:05:25.556Z,13.6
2019-05-09T00:10:41.166Z,13.6
2019-05-09T00:11:43.757Z,13.6
2019-05-09T00:15:40.424Z,13.6
2019-05-09T00:20:45.476Z,13.6
2019-05-09T00:25:50.423Z,13.6
2019-05-09T00:30:55.464Z,13.5
2019-05-09T00:36:05.417Z,13.4
2019-05-09T00:41:15.433Z,13.3
2019-05-09T00:46:20.508Z,13.4
2019-05-09T00:51:25.421Z,13.2
2019-05-09T00:56:30.586Z,13.2
2019-05-09T01:01:35.454Z,13.2
2019-05-09T01:06:45.370Z,13.2
2019-05-09T01:11:55.400Z,13.2
2019-05-09T01:17:00.416Z,13.3
2019-05-09T01:22:05.405Z,13.3
2019-05-09T01:27:10.463Z,13.5
2019-05-09T01:32:15.385Z,13.6
2019-05-09T01:37:25.323Z,13.6
2019-05-09T01:42:35.554Z,13.5
2019-05-09T01:47:40.335Z,13.6
2019-05-09T01:57:47.937Z,13.6
2019-05-09T02:02:50.734Z,13.5
2019-05-09T02:07:55.733Z,13.7
2019-05-09T02:13:05.666Z,13.7
2019-05-09T02:18:15.683Z,13.6
2019-05-09T02:23:20.680Z,13.6
2019-05-09T02:28:25.788Z,13.7
2019-05-09T02:33:30.718Z,13.6
2019-05-09T02:38:38.818Z,13.6
2019-05-09T02:43:40.718Z,13.6
2019-05-09T02:48:50.665Z,13.5
2019-05-09T02:54:00.653Z,13.6
2019-05-09T02:59:05.671Z,13.4
2019-05-09T03:04:10.659Z,13.4
2019-05-09T03:09:18.623Z,13.4
2019-05-09T03:14:20.631Z,13.4
2019-05-09T03:19:30.663Z,13.4
2019-05-09T03:24:40.674Z,13.4
2019-05-09T03:29:48.448Z,13.5
2019-05-09T03:34:50.654Z,13.4
2019-05-09T03:39:57.875Z,13.4
2019-05-09T03:49:55.892Z,13.3
2019-05-09T03:55:00.893Z,13.3
2019-05-09T04:00:07.655Z,13.5
2019-05-09T04:05:17.884Z,13.6
2019-05-09T04:10:27.973Z,13.7
2019-05-09T04:15:30.883Z,13.9
2019-05-09T04:20:37.699Z,13.9
2019-05-09T04:25:40.883Z,13.9
2019-05-09T04:30:47.742Z,14.2
2019-05-09T04:36:08.104Z,14.3
2019-05-09T04:41:23.789Z,14.4
2019-05-09T04:46:30.867Z,14.4
2019-05-09T04:51:40.910Z,14.4
2019-05-09T04:56:47.423Z,14.7
2019-05-09T05:01:50.902Z,14.6
2019-05-09T05:06:57.844Z,14.5
2019-05-09T05:12:00.876Z,14.5
2019-05-09T05:17:11.568Z,14.8
2019-05-09T05:22:20.889Z,14.8
2019-05-09T05:27:27.769Z,15
2019-05-09T05:32:30.855Z,15
2019-05-09T05:37:38.336Z,15.1
2019-05-09T05:42:40.832Z,15.1
2019-05-09T05:47:51.078Z,15.1
2019-05-09T05:53:00.983Z,15.3
2019-05-09T05:58:08.279Z,15.2
2019-05-09T06:03:10.822Z,15
2019-05-09T06:08:17.447Z,15
2019-05-09T06:13:20.832Z,14.8
2019-05-09T06:18:30.838Z,15
2019-05-09T06:23:40.858Z,15.1
2019-05-09T06:28:47.920Z,15.4
2019-05-09T06:33:53.436Z,16.1
2019-05-09T06:38:58.466Z,16
2019-05-09T06:44:12.848Z,16.1
2019-05-09T06:45:11.061Z,16.1
2019-05-09T06:49:24.052Z,16.1
2019-05-09T06:50:18.510Z,16.1
2019-05-09T06:54:20.837Z,15.8
2019-05-09T06:59:28.062Z,15.8
2019-05-09T07:04:30.849Z,16.4
2019-05-09T07:09:35.814Z,15.8
2019-05-09T07:19:38.233Z,15.6
2019-05-09T07:24:40.929Z,15.8
2019-05-09T07:29:48.063Z,15.8
2019-05-09T07:34:57.887Z,16
2019-05-09T07:40:07.799Z,16.3
2019-05-09T07:45:11.165Z,16.3
2019-05-09T07:50:18.580Z,16.1
2019-05-09T07:55:20.926Z,16.5
2019-05-09T08:00:27.693Z,17.1
2019-05-09T08:05:30.956Z,17.6
2019-05-09T08:10:38.324Z,18
2019-05-09T08:20:40.185Z,17.6
2019-05-09T08:25:41.271Z,18.5
2019-05-09T08:30:48.356Z,18.2
2019-05-09T08:35:58.198Z,17.1
2019-05-09T08:41:08.761Z,17
2019-05-09T08:46:11.177Z,17.8
2019-05-09T08:51:17.975Z,17.9
2019-05-09T08:56:21.145Z,18.4
2019-05-09T09:01:33.791Z,18.7
2019-05-09T09:02:41.417Z,18.7
2019-05-09T09:06:37.943Z,19.3
2019-05-09T09:11:47.802Z,20.2
2019-05-09T09:16:51.119Z,20.6
2019-05-09T09:21:59.683Z,21.2
2019-05-09T09:27:01.151Z,21.2
2019-05-09T09:32:08.244Z,20.2
2019-05-09T09:37:18.221Z,20.2
2019-05-09T09:42:28.158Z,19.8
2019-05-09T09:47:31.145Z,20.3
2019-05-09T09:52:38.419Z,19.5
2019-05-09T09:57:41.110Z,19.3
2019-05-09T10:07:41.303Z,19.6
2019-05-09T10:12:49.331Z,19.6
2019-05-09T10:17:51.340Z,20.8
2019-05-09T10:23:10.344Z,20.5
2019-05-09T10:24:04.612Z,20.5
2019-05-09T10:28:11.402Z,20.6
2019-05-09T10:33:17.502Z,21
2019-05-09T10:38:21.324Z,21.6
2019-05-09T10:43:35.331Z,22.1
2019-05-09T10:44:38.588Z,22.1
2019-05-09T10:48:31.288Z,22.1
2019-05-09T10:53:41.359Z,21
2019-05-09T10:58:51.326Z,19.8
2019-05-09T11:03:58.518Z,19.4
2019-05-09T11:09:01.292Z,18.7
2019-05-09T11:14:08.504Z,17.9
2019-05-09T11:19:11.276Z,17.9
2019-05-09T11:24:21.328Z,18.5
2019-05-09T11:25:38.667Z,18.5
2019-05-09T11:29:31.457Z,19.9
2019-05-09T11:34:37.531Z,20.6
2019-05-09T11:39:42.244Z,21.4
2019-05-09T11:44:46.316Z,21.6
2019-05-09T11:49:51.420Z,21.4
2019-05-09T11:55:01.309Z,21.1
2019-05-09T12:00:11.281Z,21.9
2019-05-09T12:05:19.152Z,22.7
2019-05-09T12:10:21.235Z,22.9
2019-05-09T12:15:28.748Z,21.5
2019-05-09T12:20:31.308Z,22
2019-05-09T12:25:41.444Z,21.3
2019-05-09T12:30:51.255Z,21.4
2019-05-09T12:35:58.546Z,21.5
2019-05-09T12:41:01.257Z,21.5
2019-05-09T12:46:08.567Z,21.3
2019-05-09T12:51:11.280Z,20.3
2019-05-09T12:56:21.279Z,19.5
2019-05-09T13:01:32.786Z,20.8
2019-05-09T13:06:38.033Z,21.3
2019-05-09T13:11:41.202Z,21.8
2019-05-09T13:16:50.158Z,21.6
2019-05-09T13:21:51.225Z,21.2
2019-05-09T13:26:56.210Z,20.7
2019-05-09T13:36:58.918Z,21.5
2019-05-09T13:42:01.416Z,22.1
2019-05-09T13:47:06.420Z,22
2019-05-09T13:52:17.878Z,22
2019-05-09T13:57:27.684Z,21.1
2019-05-09T14:02:31.396Z,20.7
2019-05-09T14:07:37.660Z,19.9
2019-05-09T14:12:41.434Z,20.2
2019-05-09T14:17:52.558Z,20.5
2019-05-09T14:22:57.548Z,21
2019-05-09T14:28:08.492Z,21.4
2019-05-09T14:33:11.358Z,21.5
2019-05-09T14:38:18.424Z,21.8
2019-05-09T14:43:21.353Z,22
2019-05-09T14:48:28.645Z,22.3
2019-05-09T14:53:31.395Z,22.4
2019-05-09T14:58:38.582Z,21.7
2019-05-09T15:03:41.427Z,21.8
2019-05-09T15:08:48.201Z,21.7
2019-05-09T15:13:51.349Z,22.1
2019-05-09T15:18:58.347Z,21.5
2019-05-09T15:24:01.401Z,21
2019-05-09T15:29:07.933Z,20.5
2019-05-09T15:34:18.511Z,20.3
2019-05-09T15:39:27.701Z,20.2
2019-05-09T15:44:31.357Z,20.4
2019-05-09T15:49:38.470Z,21.5
2019-05-09T15:54:41.333Z,21.3
2019-05-09T15:59:47.884Z,21.9
2019-05-09T16:04:58.345Z,21.4
2019-05-09T16:10:08.321Z,21.4
2019-05-09T16:15:11.298Z,21.4
2019-05-09T16:20:19.626Z,21.2
2019-05-09T16:21:20.721Z,21.2
2019-05-09T16:25:21.363Z,21.4
2019-05-09T16:30:27.477Z,21.3
2019-05-09T16:35:38.101Z,21.6
2019-05-09T16:40:47.841Z,21.5
2019-05-09T16:45:51.353Z,21
2019-05-09T16:51:01.149Z,21.2
2019-05-09T16:56:01.320Z,21
2019-05-09T17:06:01.540Z,21
2019-05-09T17:11:07.711Z,21
2019-05-09T17:16:11.844Z,20.7
2019-05-09T17:21:24.371Z,20.7
2019-05-09T17:26:31.487Z,20.5
2019-05-09T17:31:38.282Z,20.3
2019-05-09T17:36:41.487Z,19.3
2019-05-09T17:41:46.548Z,18.2
2019-05-09T17:46:51.504Z,18.1
2019-05-09T17:52:01.550Z,18
2019-05-09T18:02:08.685Z,17.6
2019-05-09T18:07:11.702Z,17.4
2019-05-09T18:12:18.700Z,17.4
2019-05-09T18:17:27.554Z,17.5
2019-05-09T18:22:36.675Z,17.4
2019-05-09T18:27:41.719Z,17.3
2019-05-09T18:37:41.964Z,17.3
2019-05-09T18:42:47.598Z,17.3
2019-05-09T18:47:51.992Z,17.2
2019-05-09T18:53:01.994Z,17.2
2019-05-09T18:58:12.022Z,17.2
2019-05-09T19:03:17.007Z,17.2
2019-05-09T19:13:17.510Z,17
2019-05-09T19:18:22.135Z,16.9
2019-05-09T19:28:24.132Z,16.8
2019-05-09T19:38:22.507Z,16.6
2019-05-09T19:43:27.519Z,16.6
2019-05-09T19:48:32.586Z,16.5
2019-05-09T19:53:42.552Z,16.5
2019-05-09T19:58:52.551Z,16.4
2019-05-09T20:03:57.450Z,16.5
2019-05-09T20:09:02.555Z,16.2
2019-05-09T20:14:07.578Z,16.2
2019-05-09T20:19:12.546Z,16.1
2019-05-09T20:24:17.499Z,16.1
2019-05-09T20:29:22.540Z,16.1
2019-05-09T20:34:27.506Z,16.1
2019-05-09T20:44:27.575Z,15.8
2019-05-09T20:49:32.600Z,15.7
2019-05-09T20:54:37.562Z,15.7
2019-05-09T20:59:47.631Z,15.8
2019-05-09T21:04:57.657Z,15.7
2019-05-09T21:14:57.884Z,16
2019-05-09T21:20:03.194Z,15.9
2019-05-09T21:25:07.900Z,15.8
2019-05-09T21:30:17.902Z,15.7
2019-05-09T21:35:27.877Z,15.5
2019-05-09T21:40:32.922Z,15.3
2019-05-09T21:45:38.033Z,15.3
2019-05-09T21:50:42.846Z,15.2
2019-05-09T21:55:47.867Z,15.2
2019-05-09T22:00:57.892Z,15.3
2019-05-09T22:06:07.924Z,15.3
2019-05-09T22:11:12.918Z,15.2
2019-05-09T22:16:17.909Z,15.1
2019-05-09T22:21:22.837Z,15.3
2019-05-09T22:26:27.851Z,15.1
2019-05-09T22:31:32.912Z,15
2019-05-09T22:36:42.912Z,15.2
2019-05-09T22:41:52.832Z,15
2019-05-09T22:46:57.922Z,14.7
2019-05-09T22:52:02.953Z,14.4
2019-05-09T22:57:07.873Z,14.4
2019-05-09T23:02:12.893Z,14.5
2019-05-09T23:07:22.866Z,14.4
2019-05-09T23:12:32.870Z,14.4
2019-05-09T23:17:37.848Z,14.3
2019-05-09T23:22:42.834Z,14.4
2019-05-09T23:27:48.008Z,14.5
2019-05-09T23:32:52.867Z,14.6
2019-05-09T23:38:02.800Z,14.5
2019-05-09T23:43:12.885Z,14.5
2019-05-09T23:48:17.834Z,14.4
2019-05-09T23:53:22.824Z,14.5
2019-05-09T23:58:27.792Z,14.8
